Anthony, Idaho
Current Conditions -  °F | °C
As of 1:53 PM on Sunday 23 Nov 2014 (Local Time) from KRXE Reporting Station
Clear Clear  
Wind Chill: 27°   Ceiling: Unl
Heat Index: 35°   Visibility: 10mi
Dew Point: 25°   Wind: 12mph
Humidity: 67%   Direction: 190°S
Pressure: 30.09"   Gusts: NA
Location:  44.2887°N, 111.507°W
Report Text: KRXE 232053Z AUTO 19010KT 10SM CLR 02/M04 A3009 RMK AO2 SLP210 T00171039 58009
Loading
Personal Weather Stations






























Interactive Weather Map New forecast layout! Learn more

10-Day Weather Forecast

Advertisements
Track Severe Weather on mobile